createdAt,value
2022-08-02T00:00:57.139Z,18.16
2022-08-02T00:05:59.650Z,18.24
2022-08-02T00:11:02.260Z,18.34
2022-08-02T00:16:05.336Z,18.19
2022-08-02T00:21:08.017Z,18.14
2022-08-02T00:26:10.507Z,18.11
2022-08-02T00:31:13.171Z,18.08
2022-08-02T00:36:16.243Z,18.08
2022-08-02T00:41:21.004Z,18.21
2022-08-02T00:46:23.570Z,18.31
2022-08-02T00:51:26.171Z,18.38
2022-08-02T00:56:28.672Z,18.45
2022-08-02T01:01:56.141Z,18.52
2022-08-02T01:07:12.007Z,18.59
2022-08-02T01:12:16.089Z,18.58
2022-08-02T01:17:30.378Z,18.69
2022-08-02T01:23:00.993Z,18.77
2022-08-02T01:28:26.055Z,18.85
2022-08-02T01:33:36.575Z,19.12
2022-08-02T01:38:50.917Z,18.78
2022-08-02T01:43:56.863Z,18.88
2022-08-02T01:49:00.686Z,18.93
2022-08-02T01:54:03.514Z,19.07
2022-08-02T01:59:06.406Z,19.32
2022-08-02T02:04:09.482Z,19.20
2022-08-02T02:09:13.428Z,19.15
2022-08-02T02:14:17.040Z,19.18
2022-08-02T02:19:22.690Z,19.27
2022-08-02T02:24:25.201Z,19.20
2022-08-02T02:29:29.512Z,19.36
2022-08-02T02:34:38.485Z,19.29
2022-08-02T02:39:42.368Z,19.10
2022-08-02T02:44:47.577Z,19.16
2022-08-02T02:49:51.511Z,18.93
2022-08-02T02:54:54.702Z,18.88
2022-08-02T02:59:57.255Z,18.82
2022-08-02T03:05:02.965Z,18.62
2022-08-02T03:10:06.998Z,18.57
2022-08-02T03:15:13.864Z,18.51
2022-08-02T03:20:20.236Z,18.52
2022-08-02T03:25:22.682Z,18.39
2022-08-02T03:30:27.816Z,18.45
2022-08-02T03:35:30.505Z,18.44
2022-08-02T03:40:33.341Z,18.51
2022-08-02T03:45:37.139Z,18.52
2022-08-02T03:50:40.317Z,18.63
2022-08-02T03:55:42.941Z,18.66
2022-08-02T04:00:45.632Z,18.77
2022-08-02T04:06:03.379Z,18.87
2022-08-02T04:11:26.105Z,18.89
2022-08-02T04:16:49.243Z,19.05
2022-08-02T04:21:52.658Z,19.07
2022-08-02T04:27:03.420Z,19.19
2022-08-02T04:32:22.883Z,19.27
2022-08-02T04:37:26.524Z,19.66
2022-08-02T04:42:29.945Z,20.09
2022-08-02T04:48:02.391Z,20.30
2022-08-02T04:52:54.829Z,20.31
2022-08-02T04:57:58.330Z,20.43
2022-08-02T05:03:01.457Z,20.41
2022-08-02T05:08:04.235Z,20.44
2022-08-02T05:13:07.070Z,20.69
2022-08-02T05:18:09.679Z,21.01
2022-08-02T05:23:12.368Z,21.40
2022-08-02T05:28:14.903Z,21.35
2022-08-02T05:33:17.396Z,21.48
2022-08-02T05:38:19.861Z,21.83
2022-08-02T05:43:28.419Z,21.95
2022-08-02T05:48:32.250Z,22.12
2022-08-02T05:53:47.697Z,22.84
2022-08-02T05:59:24.307Z,23.91
2022-08-02T06:04:33.331Z,23.89
2022-08-02T06:09:36.201Z,24.23
2022-08-02T06:14:38.577Z,25.61
2022-08-02T06:19:51.947Z,26.48
2022-08-02T06:24:56.828Z,25.59
2022-08-02T06:29:59.563Z,25.09
2022-08-02T06:35:05.742Z,25.73
2022-08-02T06:40:28.117Z,24.54
2022-08-02T06:45:30.490Z,23.97
2022-08-02T06:50:33.377Z,24.57
2022-08-02T06:55:43.638Z,24.95
2022-08-02T07:00:47.369Z,24.99
2022-08-02T07:05:49.746Z,25.22
2022-08-02T07:10:52.424Z,24.83
2022-08-02T07:15:55.917Z,24.89
2022-08-02T07:20:58.391Z,25.25
2022-08-02T07:26:03.269Z,24.76
2022-08-02T07:31:07.046Z,23.95
2022-08-02T07:36:17.037Z,24.21
2022-08-02T07:41:25.043Z,24.39
2022-08-02T07:46:27.825Z,24.40
2022-08-02T07:51:33.225Z,24.25
2022-08-02T07:56:35.725Z,24.77
2022-08-02T08:01:38.238Z,24.70
2022-08-02T08:06:49.756Z,24.35
2022-08-02T08:11:52.206Z,24.22
2022-08-02T08:16:54.551Z,24.03
2022-08-02T08:21:56.957Z,23.84
2022-08-02T08:26:59.407Z,23.99
2022-08-02T08:32:01.882Z,24.14
2022-08-02T08:37:04.449Z,23.88
2022-08-02T08:42:08.870Z,23.70
2022-08-02T08:47:12.005Z,23.98
2022-08-02T08:52:15.194Z,24.22
2022-08-02T08:57:19.431Z,24.68
2022-08-02T09:02:26.014Z,24.58
2022-08-02T09:07:30.460Z,25.05
2022-08-02T09:12:32.990Z,25.34
2022-08-02T09:17:35.410Z,25.89
2022-08-02T09:22:38.107Z,24.97
2022-08-02T09:27:40.558Z,25.62
2022-08-02T09:32:48.253Z,26.03
2022-08-02T09:37:50.827Z,25.40
2022-08-02T09:42:59.697Z,25.94
2022-08-02T09:48:11.318Z,26.04
2022-08-02T09:53:14.362Z,25.60
2022-08-02T09:58:21.090Z,25.65
2022-08-02T10:03:25.969Z,25.99
2022-08-02T10:08:37.388Z,26.72
2022-08-02T10:13:39.875Z,26.46
2022-08-02T10:18:42.204Z,26.14
2022-08-02T10:23:46.388Z,26.51
2022-08-02T10:28:50.176Z,26.76
2022-08-02T10:33:53.610Z,26.63
2022-08-02T10:38:58.816Z,26.50
2022-08-02T10:44:01.689Z,26.54
2022-08-02T10:49:38.180Z,27.03
2022-08-02T10:54:41.731Z,27.64
2022-08-02T10:59:45.124Z,27.82
2022-08-02T11:04:47.624Z,27.75
2022-08-02T11:09:51.313Z,27.73
2022-08-02T11:15:04.020Z,27.91
2022-08-02T11:20:13.150Z,27.93
2022-08-02T11:25:24.517Z,28.25
2022-08-02T11:30:27.938Z,28.36
2022-08-02T11:35:41.053Z,28.51
2022-08-02T11:40:44.144Z,27.75
2022-08-02T11:45:46.863Z,28.41
2022-08-02T11:50:49.498Z,27.59
2022-08-02T11:55:57.709Z,28.10
2022-08-02T12:01:00.742Z,28.27
2022-08-02T12:06:06.863Z,27.45
2022-08-02T12:11:13.434Z,27.48
2022-08-02T12:16:34.700Z,27.94
2022-08-02T12:21:37.097Z,27.88
2022-08-02T12:26:46.598Z,28.34
2022-08-02T12:31:56.524Z,28.18
2022-08-02T12:37:08.763Z,28.20
2022-08-02T12:42:15.720Z,28.47
2022-08-02T12:47:18.440Z,28.96
2022-08-02T12:52:24.953Z,28.89
2022-08-02T12:57:27.454Z,28.85
2022-08-02T13:02:31.397Z,28.65
2022-08-02T13:07:33.833Z,28.84
2022-08-02T13:12:37.544Z,29.39
2022-08-02T13:17:40.287Z,29.40
2022-08-02T13:22:52.906Z,29.52
2022-08-02T13:27:56.150Z,29.82
2022-08-02T13:33:01.129Z,30.06
2022-08-02T13:38:04.668Z,29.58
2022-08-02T13:43:07.186Z,29.39
2022-08-02T13:48:16.626Z,29.50
2022-08-02T13:53:20.928Z,29.77
2022-08-02T13:58:23.471Z,30.35
2022-08-02T14:03:26.498Z,29.72
2022-08-02T14:08:49.612Z,30.16
2022-08-02T14:13:52.031Z,29.70
2022-08-02T14:18:54.409Z,29.50
2022-08-02T14:23:56.894Z,29.16
2022-08-02T14:28:59.329Z,29.21
2022-08-02T14:34:01.914Z,29.10
2022-08-02T14:39:04.537Z,29.48
2022-08-02T14:44:09.771Z,29.29
2022-08-02T14:49:14.119Z,29.39
2022-08-02T14:54:17.314Z,29.54
2022-08-02T14:59:20.773Z,29.69
2022-08-02T15:04:23.386Z,30.04
2022-08-02T15:09:26.344Z,29.41
2022-08-02T15:14:28.767Z,29.28
2022-08-02T15:19:56.079Z,29.33
2022-08-02T15:24:54.284Z,29.61
2022-08-02T15:30:00.880Z,29.51
2022-08-02T15:35:03.561Z,29.07
2022-08-02T15:40:06.670Z,29.08
2022-08-02T15:45:13.210Z,29.08
2022-08-02T15:50:18.813Z,28.95
2022-08-02T15:55:21.358Z,29.19
2022-08-02T16:00:23.767Z,29.30
2022-08-02T16:05:26.354Z,28.95
2022-08-02T16:10:29.003Z,28.88
2022-08-02T16:15:31.459Z,28.63
2022-08-02T16:20:33.886Z,28.68
2022-08-02T16:25:41.541Z,28.52
2022-08-02T16:30:54.336Z,28.53
2022-08-02T16:36:06.954Z,28.40
2022-08-02T16:41:10.458Z,27.94
2022-08-02T16:46:13.034Z,27.86
2022-08-02T16:51:15.638Z,27.60
2022-08-02T16:56:18.149Z,27.66
2022-08-02T17:01:27.451Z,27.23
2022-08-02T17:06:30.487Z,27.15
2022-08-02T17:11:33.124Z,26.76
2022-08-02T17:16:35.635Z,26.29
2022-08-02T17:21:38.808Z,26.10
2022-08-02T17:26:41.200Z,25.86
2022-08-02T17:32:02.371Z,25.70
2022-08-02T17:37:08.996Z,25.28
2022-08-02T17:42:11.663Z,24.86
2022-08-02T17:47:22.824Z,24.52
2022-08-02T17:52:51.281Z,24.15
2022-08-02T17:57:58.692Z,23.98
2022-08-02T18:03:05.991Z,23.69
2022-08-02T18:08:10.225Z,23.46
2022-08-02T18:13:16.557Z,23.63
2022-08-02T18:18:30.020Z,24.00
2022-08-02T18:23:32.773Z,24.09
2022-08-02T18:28:40.553Z,23.80
2022-08-02T18:33:57.556Z,23.82
2022-08-02T18:39:08.231Z,23.67
2022-08-02T18:44:11.490Z,23.60
2022-08-02T18:49:18.464Z,23.49
2022-08-02T18:54:30.641Z,23.45
2022-08-02T18:59:43.375Z,23.35
2022-08-02T19:04:54.352Z,23.24
2022-08-02T19:09:58.538Z,22.99
2022-08-02T19:15:01.969Z,22.90
2022-08-02T19:20:05.932Z,22.88
2022-08-02T19:25:09.149Z,22.76
2022-08-02T19:30:17.259Z,22.47
2022-08-02T19:40:42.402Z,22.32
2022-08-02T19:45:49.999Z,22.17
2022-08-02T19:51:00.797Z,22.10
2022-08-02T19:56:04.424Z,22.10
2022-08-02T20:01:07.771Z,21.96
2022-08-02T20:06:19.427Z,21.90
2022-08-02T20:11:24.558Z,21.66
2022-08-02T20:16:32.674Z,21.63
2022-08-02T20:21:37.842Z,21.53
2022-08-02T20:26:47.516Z,21.56
2022-08-02T20:31:50.737Z,21.51
2022-08-02T20:36:54.162Z,21.34
2022-08-02T20:41:58.997Z,21.24
2022-08-02T20:47:03.209Z,20.78
2022-08-02T20:52:24.117Z,21.08
2022-08-02T20:57:49.081Z,20.91
2022-08-02T21:02:50.581Z,20.63
2022-08-02T21:07:55.026Z,20.54
2022-08-02T21:12:57.531Z,20.42
2022-08-02T21:18:05.738Z,20.23
2022-08-02T21:23:19.887Z,20.19
2022-08-02T21:28:22.867Z,20.08
2022-08-02T21:33:25.635Z,19.73
2022-08-02T21:38:35.415Z,19.55
2022-08-02T21:43:43.937Z,19.21
2022-08-02T21:48:47.005Z,19.08
2022-08-02T21:54:18.474Z,19.10
2022-08-02T21:59:15.887Z,19.11
2022-08-02T22:04:19.422Z,18.96
2022-08-02T22:09:43.201Z,19.05
2022-08-02T22:14:53.766Z,18.89
2022-08-02T22:19:58.290Z,18.92
2022-08-02T22:25:01.227Z,18.87
2022-08-02T22:30:08.213Z,18.61
2022-08-02T22:35:12.391Z,18.63
2022-08-02T22:40:14.847Z,18.52
2022-08-02T22:45:18.210Z,18.38
2022-08-02T22:50:21.409Z,18.34
2022-08-02T22:55:24.533Z,18.20
2022-08-02T22:58:52.547Z,22.46
2022-08-02T23:00:35.028Z,18.23
2022-08-02T23:05:39.260Z,18.14
2022-08-02T23:10:43.101Z,18.20
2022-08-02T23:16:05.221Z,18.12
2022-08-02T23:21:07.959Z,18.08
2022-08-02T23:26:10.570Z,18.08
2022-08-02T23:31:30.104Z,17.99
2022-08-02T23:36:33.238Z,17.86
2022-08-02T23:41:36.614Z,17.80
2022-08-02T23:46:47.042Z,17.71
2022-08-02T23:51:51.372Z,17.74
2022-08-02T23:56:54.247Z,17.88
